MSR1015 OKKK-HEAT
Flight info
| Callsign | MSR1015 |
|---|---|
| Flight time | N/A |
| Altitude | 38000 |
| Route | NIDAP L550 ASTUM V13 TBK Y333 GEPAG Q510 RAGPU N316 HGD/N0486F390 V608 NABED DCT ASPEK ASPEK1C |
| Aircraft | B77W/H-SDE1E2E3FGHIJ2J3J4J5M1RWXY/LB1D1 |
Departure
| Time | 2026-05-05 12:16 |
|---|---|
| Airport | Kuwait International Airport (OKKK) |
Arrival
| Time | N/A |
|---|---|
| Airport | Asyut International Airport (HEAT) |
| Time | Latitude | Longitude | Altitude | Speed | Heading |
|---|---|---|---|---|---|
| 2026-05-05 11:39 | 29.23682 | 47.97019 | 174 ft | 0 kts | 53° |
| 2026-05-05 12:08 | 29.23670 | 47.97001 | 174 ft | 4 kts | 50° |
| 2026-05-05 12:09 | 29.23654 | 47.96977 | 174 ft | 4 kts | 54° |
| 2026-05-05 12:09 | 29.23640 | 47.96951 | 174 ft | 4 kts | 75° |
| 2026-05-05 12:09 | 29.23641 | 47.96928 | 174 ft | 1 kts | 131° |
| 2026-05-05 12:09 | 29.23641 | 47.96927 | 174 ft | 2 kts | 132° |
| 2026-05-05 12:12 | 29.24083 | 47.98361 | 172 ft | 0 kts | 155° |
| 2026-05-05 12:15 | 29.23963 | 47.98425 | 174 ft | 55 kts | 155° |
| 2026-05-05 12:15 | 29.23377 | 47.98738 | 181 ft | 131 kts | 155° |
| 2026-05-05 12:15 | 29.22373 | 47.99282 | 208 ft | 190 kts | 153° |
| 2026-05-05 12:16 | 29.21097 | 48.00011 | 642 ft | 202 kts | 153° |
| 2026-05-05 12:16 | 29.19852 | 48.00619 | 1506 ft | 194 kts | 170° |
| 2026-05-05 12:16 | 29.18569 | 48.00328 | 2043 ft | 207 kts | 210° |
| 2026-05-05 12:16 | 29.17435 | 47.99168 | 2268 ft | 230 kts | 223° |
| 2026-05-05 12:17 | 29.16224 | 47.97841 | 2617 ft | 248 kts | 220° |
| 2026-05-05 12:17 | 29.14916 | 47.96541 | 3188 ft | 259 kts | 218° |
| 2026-05-05 12:17 | 29.13482 | 47.95247 | 3873 ft | 264 kts | 216° |
| 2026-05-05 12:17 | 29.11975 | 47.93987 | 4613 ft | 269 kts | 214° |
| 2026-05-05 12:18 | 29.10434 | 47.92777 | 5472 ft | 269 kts | 212° |
| 2026-05-05 12:18 | 29.08866 | 47.91600 | 6298 ft | 270 kts | 211° |
| 2026-05-05 12:18 | 29.07274 | 47.90442 | 7078 ft | 273 kts | 211° |
| 2026-05-05 12:18 | 29.05658 | 47.89293 | 7826 ft | 275 kts | 211° |
| 2026-05-05 12:19 | 29.04019 | 47.88143 | 8558 ft | 278 kts | 210° |
| 2026-05-05 12:19 | 29.02382 | 47.87010 | 9274 ft | 281 kts | 210° |
| 2026-05-05 12:19 | 29.00698 | 47.85851 | 9992 ft | 283 kts | 211° |
| 2026-05-05 12:19 | 28.98991 | 47.84682 | 10568 ft | 293 kts | 211° |
| 2026-05-05 12:20 | 28.97162 | 47.83434 | 10749 ft | 319 kts | 211° |
| 2026-05-05 12:20 | 28.95184 | 47.82084 | 10946 ft | 342 kts | 211° |
| 2026-05-05 12:20 | 28.93074 | 47.80654 | 11275 ft | 360 kts | 211° |
| 2026-05-05 12:20 | 28.90896 | 47.79178 | 11957 ft | 369 kts | 211° |
| 2026-05-05 12:21 | 28.88677 | 47.77674 | 12842 ft | 371 kts | 212° |
| 2026-05-05 12:21 | 28.86452 | 47.76166 | 13743 ft | 374 kts | 212° |
| 2026-05-05 12:21 | 28.84203 | 47.74641 | 14595 ft | 378 kts | 212° |
| 2026-05-05 12:21 | 28.81922 | 47.73098 | 15380 ft | 383 kts | 212° |
| 2026-05-05 12:22 | 28.79618 | 47.71538 | 16160 ft | 387 kts | 213° |
| 2026-05-05 12:22 | 28.77286 | 47.69962 | 16948 ft | 391 kts | 213° |
| 2026-05-05 12:22 | 28.74929 | 47.68368 | 17720 ft | 396 kts | 213° |
| 2026-05-05 12:22 | 28.72577 | 47.66779 | 18429 ft | 401 kts | 213° |
| 2026-05-05 12:23 | 28.70174 | 47.65154 | 19192 ft | 402 kts | 214° |
| 2026-05-05 12:23 | 28.67995 | 47.63187 | 19781 ft | 402 kts | 230° |
| 2026-05-05 12:23 | 28.66483 | 47.60511 | 20478 ft | 404 kts | 246° |
| 2026-05-05 12:23 | 28.65589 | 47.57465 | 21250 ft | 406 kts | 256° |
| 2026-05-05 12:24 | 28.65342 | 47.54253 | 21943 ft | 410 kts | 270° |
| 2026-05-05 12:24 | 28.65582 | 47.50998 | 22505 ft | 416 kts | 273° |
| 2026-05-05 12:24 | 28.65899 | 47.47702 | 23050 ft | 421 kts | 273° |
| 2026-05-05 12:24 | 28.66231 | 47.44365 | 23625 ft | 425 kts | 273° |
| 2026-05-05 12:25 | 28.66554 | 47.41010 | 24236 ft | 427 kts | 272° |
| 2026-05-05 12:25 | 28.66860 | 47.37639 | 24837 ft | 429 kts | 272° |
| 2026-05-05 12:25 | 28.67150 | 47.34293 | 25427 ft | 431 kts | 272° |
| 2026-05-05 12:25 | 28.67433 | 47.30885 | 26036 ft | 432 kts | 272° |
| 2026-05-05 12:26 | 28.67711 | 47.27477 | 26635 ft | 432 kts | 272° |
| 2026-05-05 12:26 | 28.67987 | 47.24061 | 27170 ft | 434 kts | 272° |
| 2026-05-05 12:26 | 28.68263 | 47.20631 | 27651 ft | 436 kts | 272° |
| 2026-05-05 12:26 | 28.68540 | 47.17178 | 28134 ft | 438 kts | 272° |
| 2026-05-05 12:27 | 28.68817 | 47.13720 | 28608 ft | 439 kts | 272° |
| 2026-05-05 12:27 | 28.69095 | 47.10246 | 29029 ft | 441 kts | 272° |
| 2026-05-05 12:27 | 28.69371 | 47.06773 | 29431 ft | 442 kts | 272° |
| 2026-05-05 12:27 | 28.69650 | 47.03279 | 29812 ft | 443 kts | 272° |
| 2026-05-05 12:28 | 28.69927 | 46.99774 | 30177 ft | 444 kts | 272° |
| 2026-05-05 12:28 | 28.70204 | 46.96269 | 30560 ft | 444 kts | 272° |
| 2026-05-05 12:28 | 28.70479 | 46.92774 | 31035 ft | 441 kts | 272° |
| 2026-05-05 12:28 | 28.70752 | 46.89307 | 31605 ft | 436 kts | 272° |
| 2026-05-05 12:29 | 28.71019 | 46.85924 | 32143 ft | 432 kts | 271° |
| 2026-05-05 12:29 | 28.71294 | 46.82524 | 32609 ft | 430 kts | 271° |
| 2026-05-05 12:29 | 28.71569 | 46.79149 | 33049 ft | 427 kts | 271° |
| 2026-05-05 12:29 | 28.71844 | 46.75788 | 33486 ft | 424 kts | 271° |
| 2026-05-05 12:30 | 28.72115 | 46.72454 | 33944 ft | 420 kts | 271° |
| 2026-05-05 12:30 | 28.72382 | 46.69148 | 34330 ft | 418 kts | 271° |
| 2026-05-05 12:30 | 28.72647 | 46.65851 | 34646 ft | 418 kts | 270° |
| 2026-05-05 12:30 | 28.72826 | 46.63623 | 34830 ft | 418 kts | 270° |
| 2026-05-05 12:31 | 28.73172 | 46.59264 | 35212 ft | 417 kts | 270° |
| 2026-05-05 12:31 | 28.73433 | 46.55980 | 35553 ft | 415 kts | 270° |
| 2026-05-05 12:31 | 28.73605 | 46.53822 | 35733 ft | 415 kts | 270° |
| 2026-05-05 12:31 | 28.73865 | 46.50543 | 36022 ft | 414 kts | 270° |
| 2026-05-05 12:32 | 28.74122 | 46.47278 | 36258 ft | 414 kts | 270° |
| 2026-05-05 12:32 | 28.74378 | 46.44007 | 36446 ft | 415 kts | 270° |
| 2026-05-05 12:32 | 28.74635 | 46.40736 | 36718 ft | 413 kts | 270° |
| 2026-05-05 12:32 | 28.74891 | 46.37492 | 37074 ft | 408 kts | 270° |
| 2026-05-05 12:33 | 28.75382 | 46.31175 | 37033 ft | 392 kts | 269° |
| 2026-05-05 12:33 | 28.75831 | 46.25029 | 37049 ft | 389 kts | 269° |
| 2026-05-05 12:34 | 28.76274 | 46.18867 | 37050 ft | 391 kts | 269° |
| 2026-05-05 12:34 | 28.76721 | 46.12660 | 37056 ft | 394 kts | 269° |
| 2026-05-05 12:35 | 28.77167 | 46.06463 | 37059 ft | 396 kts | 269° |
| 2026-05-05 12:35 | 28.77616 | 46.00199 | 37056 ft | 397 kts | 269° |
| 2026-05-05 12:36 | 28.78063 | 45.93930 | 37055 ft | 397 kts | 269° |
| 2026-05-05 12:36 | 28.78505 | 45.87665 | 37055 ft | 396 kts | 269° |
| 2026-05-05 12:37 | 28.78945 | 45.81402 | 37056 ft | 396 kts | 269° |
| 2026-05-05 12:37 | 28.79382 | 45.75143 | 37053 ft | 396 kts | 269° |
| 2026-05-05 12:38 | 28.79815 | 45.68906 | 37056 ft | 394 kts | 269° |
| 2026-05-05 12:38 | 28.80244 | 45.62667 | 37052 ft | 394 kts | 269° |
| 2026-05-05 12:39 | 28.80666 | 45.56483 | 37057 ft | 393 kts | 269° |
| 2026-05-05 12:39 | 28.81088 | 45.50275 | 37058 ft | 393 kts | 269° |
| 2026-05-05 12:40 | 28.81507 | 45.44064 | 37064 ft | 393 kts | 269° |
| 2026-05-05 12:40 | 28.81922 | 45.37851 | 37065 ft | 393 kts | 269° |
| 2026-05-05 12:41 | 28.82335 | 45.31636 | 37064 ft | 393 kts | 269° |
| 2026-05-05 12:41 | 28.82745 | 45.25417 | 37067 ft | 393 kts | 269° |
| 2026-05-05 12:42 | 28.83154 | 45.19180 | 37068 ft | 394 kts | 269° |
| 2026-05-05 12:42 | 28.83560 | 45.12938 | 37078 ft | 395 kts | 269° |
| 2026-05-05 12:43 | 28.83964 | 45.06694 | 37076 ft | 395 kts | 269° |
| 2026-05-05 12:43 | 28.84365 | 45.00439 | 37073 ft | 396 kts | 269° |
| 2026-05-05 12:44 | 28.84764 | 44.94173 | 37083 ft | 395 kts | 269° |
| 2026-05-05 12:44 | 28.85161 | 44.87916 | 37098 ft | 396 kts | 269° |
| 2026-05-05 12:45 | 28.85555 | 44.81651 | 37085 ft | 396 kts | 268° |
| 2026-05-05 12:45 | 28.85944 | 44.75423 | 37093 ft | 396 kts | 268° |
| 2026-05-05 12:46 | 28.86400 | 44.69156 | 37101 ft | 397 kts | 269° |
| 2026-05-05 12:46 | 28.86923 | 44.62870 | 37096 ft | 397 kts | 269° |
| 2026-05-05 12:47 | 28.87441 | 44.56586 | 37105 ft | 398 kts | 269° |
| 2026-05-05 12:47 | 28.87948 | 44.50303 | 37107 ft | 398 kts | 269° |
| 2026-05-05 12:48 | 28.88448 | 44.44009 | 37114 ft | 398 kts | 269° |
| 2026-05-05 12:48 | 28.88945 | 44.37714 | 37114 ft | 398 kts | 269° |
| 2026-05-05 12:49 | 28.89438 | 44.31410 | 37129 ft | 398 kts | 269° |
| 2026-05-05 12:49 | 28.89928 | 44.25152 | 37134 ft | 399 kts | 269° |
| 2026-05-05 12:50 | 28.90417 | 44.18844 | 37131 ft | 399 kts | 269° |
| 2026-05-05 12:50 | 28.90902 | 44.12548 | 37151 ft | 399 kts | 269° |
| 2026-05-05 12:51 | 28.91384 | 44.06230 | 37084 ft | 401 kts | 269° |
| 2026-05-05 12:51 | 28.91626 | 44.03052 | 36886 ft | 401 kts | 269° |
| 2026-05-05 12:51 | 28.91867 | 43.99890 | 36719 ft | 398 kts | 269° |
| 2026-05-05 12:52 | 28.92343 | 43.93619 | 36833 ft | 398 kts | 269° |
| 2026-05-05 12:52 | 28.92817 | 43.87271 | 36887 ft | 405 kts | 269° |
| 2026-05-05 12:53 | 28.93298 | 43.80827 | 36892 ft | 408 kts | 269° |
| 2026-05-05 12:53 | 28.93776 | 43.74402 | 36904 ft | 410 kts | 269° |
| 2026-05-05 12:54 | 28.94493 | 43.64684 | 36901 ft | 408 kts | 269° |
| 2026-05-05 12:55 | 28.94963 | 43.58245 | 36908 ft | 406 kts | 269° |
| 2026-05-05 12:55 | 28.95428 | 43.51831 | 36900 ft | 405 kts | 269° |
| 2026-05-05 12:56 | 28.95884 | 43.45448 | 36880 ft | 402 kts | 269° |
| 2026-05-05 12:56 | 28.96109 | 43.42272 | 36641 ft | 400 kts | 269° |
| 2026-05-05 12:56 | 28.96331 | 43.39100 | 36219 ft | 403 kts | 269° |
| 2026-05-05 12:56 | 28.96555 | 43.35894 | 35609 ft | 409 kts | 269° |
| 2026-05-05 12:57 | 28.96782 | 43.32634 | 35171 ft | 412 kts | 269° |
| 2026-05-05 12:57 | 28.97012 | 43.29351 | 35027 ft | 415 kts | 269° |
| 2026-05-05 12:57 | 28.97242 | 43.26060 | 34924 ft | 416 kts | 269° |
| 2026-05-05 12:58 | 28.97701 | 43.19463 | 34920 ft | 417 kts | 269° |
| 2026-05-05 12:58 | 28.98159 | 43.12846 | 34912 ft | 417 kts | 269° |
| 2026-05-05 12:59 | 28.98611 | 43.06230 | 34919 ft | 417 kts | 269° |
| 2026-05-05 12:59 | 28.99059 | 42.99628 | 34916 ft | 417 kts | 269° |
| 2026-05-05 13:00 | 28.99722 | 42.89770 | 34916 ft | 416 kts | 269° |
| 2026-05-05 13:01 | 29.00597 | 42.76581 | 34916 ft | 415 kts | 269° |
| 2026-05-05 13:01 | 29.01030 | 42.69998 | 34916 ft | 415 kts | 269° |
| 2026-05-05 13:02 | 29.01458 | 42.63423 | 34918 ft | 415 kts | 269° |
| 2026-05-05 13:02 | 29.01886 | 42.56835 | 34921 ft | 415 kts | 269° |
| 2026-05-05 13:03 | 29.02307 | 42.50260 | 34929 ft | 416 kts | 269° |
| 2026-05-05 13:03 | 29.02724 | 42.43703 | 34929 ft | 416 kts | 269° |
| 2026-05-05 13:04 | 29.03142 | 42.37107 | 34928 ft | 416 kts | 269° |
| 2026-05-05 13:04 | 29.03555 | 42.30514 | 34925 ft | 416 kts | 269° |
| 2026-05-05 13:05 | 29.03966 | 42.23918 | 34925 ft | 416 kts | 269° |
| 2026-05-05 13:05 | 29.04374 | 42.17321 | 34926 ft | 416 kts | 269° |
| 2026-05-05 13:06 | 29.04779 | 42.10722 | 34926 ft | 416 kts | 269° |
| 2026-05-05 13:06 | 29.05181 | 42.04134 | 34924 ft | 416 kts | 269° |
| 2026-05-05 13:07 | 29.05185 | 42.04067 | 34924 ft | 416 kts | 269° |
| 2026-05-05 13:10 | 29.05321 | 42.01833 | 34928 ft | 416 kts | 269° |
| 2026-05-05 13:10 | 29.05720 | 41.95242 | 34943 ft | 415 kts | 269° |
| 2026-05-05 13:11 | 29.06114 | 41.88705 | 34956 ft | 415 kts | 269° |
| 2026-05-05 13:11 | 29.06509 | 41.82126 | 34961 ft | 414 kts | 269° |
| 2026-05-05 13:12 | 29.06899 | 41.75559 | 34963 ft | 415 kts | 269° |